Alpine, NY

6:01 AM EST on November 28, 2014 (GMT -0500)
Binghamton Regional-Link | Change Station
CLOSE
Current Station
Airport
Location: Binghamton,
Elevation: 1634 ft
Nearby Weather Stations

Elev 1634 ft 42.21 °N, 75.98 °W | Updated 8 minutes ago

Overcast
Overcast
28 °F
Feels Like 24 °F
N
4
Wind Variable Wind from WNW

Today
High -- | Low -- °F
--% Chance of Precip.
Yesterday
High -- | Low -- °F
Precip. -- in
7:13 AM 4:36 PM
Waxing Crescent, 39% visible
Pressure 30.13 in
Visibility 7.0 miles
Clouds Scattered Clouds 1000 ft
Mostly Cloudy 1700 ft
Overcast 2300 ft
Windchill 24 °F
Dew Point 20 °F
Humidity 72%
Rainfall 0.00 in
Snow Depth Not available.
UV 0 out of 12
Pollen .10 out of 12
Air Quality Not available.
Flu Activity Not available.
METAR KBGM 281053Z AUTO 30003KT 7SM SCT010 BKN017 OVC023 M02/M07 A3007 RMK AO2 SNB04E53 SLP203 P0000 T10221067 $

More Conditions Fewer Conditions

Pressure 30.13 in
Visibility 7.0 miles
Clouds Scattered Clouds 1000 ft
Mostly Cloudy 1700 ft
Overcast 2300 ft
Windchill 24 °F
Dew Point 20 °F
Humidity 72%
Rainfall 0.00 in
Snow Depth Not available.
UV 0 out of 12
Pollen .10 out of 12
Air Quality Not available.
Flu Activity Not available.
METAR KBGM 281053Z AUTO 30003KT 7SM SCT010 BKN017 OVC023 M02/M07 A3007 RMK AO2 SNB04E53 SLP203 P0000 T10221067 $

More Conditions Fewer Conditions

10-Day Weather Forecast

Almanac

Astronomy

Nov. 28, 2014 Rise Set
Actual Time
Civil Twilight
Nautical Twilight
Astronomical Twilight
Moon
Length of Visible Light
Length of Day
Tomorrow will be .
, % of the Moon is Illuminated

Today's Extremes

State Highs State Lows

Community

WunderPhotos

Upload Photos

1,774,192 photos uploaded!

WunderBlogs® & News

Nearby

Air Quality

  Air Quality AQ Index Pollutant
Not available.

Snow Depth

Station Depth Elevation

Earthquake Activity

City Distance Mag. Time & Date
Minimum magnitude displayed is 2.5.

Coastal Water Temperatures

Place Temperature

Nearby Weather Stations